Terminal Aerodrome Forecast
Issued by NWS

Home | Current Version | Previous Version | Text Only | Print | Product List | Glossary Off
Versions: 1 2 3 4 5 6 7 8 9 10 11 12 13 14 15 16 17 18 19 20 21 22

000
FTUS43 KICT 232125 AAA
TAFRSL
TAF AMD
KRSL 232125Z 2321/2418 18022G30KT P6SM VCTS SCT070CB
     FM240000 18017KT P6SM SCT070
     FM240600 25004KT P6SM BKN300
     FM241100 01007KT P6SM BKN150 OVC300=

USA.gov is the U.S. government's official web portal to all federal, state and local government web resources and services.